AirNav   Air Wisconsin pilot careers
 
 519 users online  

M11 Copiah County Airport
Crystal Springs, Mississippi, USA


FAA INFORMATION EFFECTIVE 04 JANUARY 2018

Location

FAA Identifier: M11
Lat/Long: 31-54-08.8500N / 090-22-00.2950W
31-54.147500N / 090-22.004917W
31.9024583 / -90.3667486
(estimated)
Elevation: 443 ft. / 135 m (estimated)
Variation: 03E (1985)
From city: 4 miles S of CRYSTAL SPRINGS, MS
(LCTD 3SM NE OF HAZLEHURST)
Time zone: UTC -6 (UTC -5 during Daylight Saving Time)
Zip code: 39083

Airport Operations

Airport use: Open to the public
Activation date: 10/1964
Control tower: no
ARTCC: MEMPHIS CENTER
FSS: GREENWOOD FLIGHT SERVICE STATION
NOTAMs facility: GWO (NOTAM-D service available)
Attendance: MON-SAT 0800-1700, ALL SUN 0800-1200
MON-FRI EVENINGS AFTER 1700 ONLY.
Wind indicator: yes
Segmented circle: no
Lights: SS-SR
Beacon: white-green (lighted land airport)
Operates sunset to sunrise.

Airport Communications

CTAF: 122.9
WX AWOS-3 at 1R7 (18 nm S): 118.125 (601-833-3209)

Nearby radio navigation aids

VOR radial/distance  VOR name  Freq  Var
MHZr204/34.7MAGNOLIA VORTAC113.2001W
MCBr348/36.3MC COMB VORTAC116.7003E

 
NDB name  Hdg/Dist  Freq  Var  ID
TALLULAH120/39.334402ETKH - -.- ....

Airport Services

Fuel available: 100LL
FUEL 24 HOUR CREDIT CARD SVC AVBL.
Parking: hangars and tiedowns
Airframe service: MAJOR
Powerplant service: MAJOR
Bottled oxygen: NONE
Bulk oxygen: NONE

Runway Information

Runway 17/35

Dimensions: 4001 x 75 ft. / 1220 x 23 m
Surface: asphalt, in good condition
Weight bearing capacity: 
Single wheel: 10.0
Runway edge lights: medium intensity
RUNWAY 17  RUNWAY 35
Latitude: 31-54.476333N31-53.818667N
Longitude: 090-22.036500W090-21.973333W
Elevation: 435.2 ft.395.7 ft.
Gradient: 0.4%1.0% UP
Traffic pattern: leftleft
Runway heading: 172 magnetic, 175 true352 magnetic, 355 true
Markings: basic, in good conditionbasic, in good condition
Visual slope indicator: 2-light PAPI on right (4.00 degrees glide path)2-light PAPI on left (3.00 degrees glide path)
Runway end identifier lights: yesyes
Obstructions: 60 ft. trees, 1400 ft. from runway, 20:1 slope to clear52 ft. trees, 1560 ft. from runway, 300 ft. right of centerline, 26:1 slope to clear

Airport Ownership and Management from official FAA records

Ownership: Publicly-owned
Owner: COPIAH COUNTY
PO BOX 551
HAZELHURST, MS 39083
Phone 601-894-1858
MR. RONNIE BARLOW-COUNTY ADMINISTRATOR
Manager: KENNETH E. AASAND
1001 AIRPORT LN.
HAZELHURST, MS 39083
Phone 601-988-2788

Airport Operational Statistics

Aircraft based on the field: 19
Single engine airplanes: 17
Multi engine airplanes: 1
Ultralights: 1
    
Aircraft operations: avg 136/week *
42% transient general aviation
35% military
23% local general aviation
* for 12-month period ending 24 March 2017

Instrument Procedures

There are no published instrument procedures at M11.

Some nearby airports with instrument procedures:

1R7 - Brookhaven-Lincoln County Airport (18 nm S)
KJVW - John Bell Williams Airport (24 nm N)
KHKS - Hawkins Field Airport (27 nm N)
KJAN - Jackson-Medgar Wiley Evers International Airport (29 nm NE)
17M - Magee Municipal Airport (29 nm E)
 
Loc | Ops | Rwys | IFR | FBO | Links
Com | Nav | Svcs | Stats | Notes


 
Area around M11 (Copiah County Airport)
 
Road maps at: MapQuest Bing Google
 
Aerial photo
WARNING: Photo may not be current or correct
Aerial photo of M11 (Copiah County Airport)
Photo by Kenneth Aasand
Photo taken 03-Oct-2014
looking northwest.

Do you have a better or more recent aerial photo of Copiah County Airport that you would like to share? If so, please send us your photo.

 
Sectional chart

 
Airport distance calculator
Flying to Copiah County Airport? Find the distance to fly.

From to M11

Sunrise and sunset
Times for 23-Jan-2018
 Local
(UTC-6)
 Zulu
(UTC)
Morning civil twilight06:3512:35
Sunrise07:0113:01
Sunset17:2623:26
Evening civil twilight17:5223:52

Current date and time
Zulu (UTC)  23-Jan-2018 11:57:28
Local (UTC-6)  23-Jan-2018 05:57:28
 
METAR
KJVW 
24nm N 
231055Z AUTO 24004KT 10SM 04/M02 A3007 RMK AO2
KHKS 
27nm N 
231053Z AUTO 24005KT 10SM CLR 05/M02 A3006 RMK AO2 SLP175 T00501022
KJAN 
29nm NE 
231054Z AUTO 27007KT 10SM CLR 07/M02 A3005 RMK AO2 SLP175 T00671022
KMBO 
35nm NE 
231055Z AUTO 21003KT 10SM CLR 02/M02 A3006 RMK AO2
KVKS 
35nm NW 
231055Z AUTO 21006KT 10SM CLR 05/M02 A3010 RMK A01
TAF
KHKS 
27nm N 
230529Z 2306/2406 28006KT P6SM SKC FM231500 30010G17KT P6SM FEW250 FM240000 33005KT P6SM SKC
KJAN 
29nm NE 
230529Z 2306/2406 27004KT P6SM SKC FM231500 30010G17KT P6SM FEW250 FM240000 33005KT P6SM SKC
NOTAMs
Click for the latest NOTAMs
NOTAMs are issued by the DoD/FAA and will open in a separate window not controlled by AirNav.

 

 
 

FBO, Fuel Providers, and Aircraft Ground Support

  
 Business Name 
 
 Contact 
 
 Services / Description 
 
Fuel Prices
 
Comments
  
Grassroots Aviation Inc. 601-647-0727
601-988-2788
[email]
Aviation fuel, Aircraft maintenance, Courtesy transportation, Pilots lounge / snooze room, Public telephone, Restrooms

More info about Grassroots Aviation Inc.
100LL
SS $3.60 
 Updated 10-Jan-2018
 
   2 read write
SS=Self service
Update Fuel Prices
 

Would you like to see your business listed on this page?

 If your business provides an interesting product or service to pilots, flight crews, aircraft, or users of the Copiah County Airport, you should consider listing it here.  To start the listing process, click on the button below
 
Add a business
 

Other Pages about Copiah County Airport

Update a link
 
Copyright © AirNav, LLC. All rights reserved. Privacy Policy  Contact